Ashland, OR

11:21 PM PST on December 19, 2014 (GMT -0800)
Tolman Creek Mountain | Change Station
CLOSE
Current Station
Personal Weather Station
Location: Ashland, OR
Elevation: 2884 ft
Nearby Weather Stations

Elev 2884 ft 42.16 °N, 122.67 °W | Updated 4 minutes ago

Fog
Fog
42.4 °F
Feels Like 42 °F
N
2.7
Wind Variable Wind from WSW

Today
High -- | Low -- °F
--% Chance of Precip.
Yesterday
High -- | Low -- °F
Precip. -- in
7:34 AM 4:41 PM
Waning Crescent, 4% visible
Pressure 30.00 in
Visibility 5.0 miles
Clouds Few 3600 ft
Mostly Cloudy 7500 ft
Overcast 9500 ft
Windchill 42 °F
Dew Point 38 °F
Humidity 85%
Rainfall 0.23 in
Snow Depth Not available.
UV 0 out of 12
Pollen .50 out of 12
Air Quality Not available.
Flu Activity Not available.
METAR KMFR 200653Z AUTO 00000KT 5SM BR FEW036 BKN075 OVC095 07/06 A2999 RMK AO2 RAE24 SLP158 P0000 T00720061

More Conditions Fewer Conditions

Pressure 30.00 in
Visibility 5.0 miles
Clouds Few 3600 ft
Mostly Cloudy 7500 ft
Overcast 9500 ft
Windchill 42 °F
Dew Point 38 °F
Humidity 85%
Rainfall 0.23 in
Snow Depth Not available.
UV 0 out of 12
Pollen .50 out of 12
Air Quality Not available.
Flu Activity Not available.
METAR KMFR 200653Z AUTO 00000KT 5SM BR FEW036 BKN075 OVC095 07/06 A2999 RMK AO2 RAE24 SLP158 P0000 T00720061

More Conditions Fewer Conditions

10-Day Weather Forecast

Almanac

Astronomy

Dec. 19, 2014 Rise Set
Actual Time
Civil Twilight
Nautical Twilight
Astronomical Twilight
Moon
Length of Visible Light
Length of Day
Tomorrow will be .
, % of the Moon is Illuminated

Today's Extremes

State Highs State Lows

Community

WunderPhotos

Upload Photos

1,779,146 photos uploaded!

WunderBlogs® & News

Nearby

Air Quality

  Air Quality AQ Index Pollutant
Not available.

Snow Depth

Station Depth Elevation

Earthquake Activity

City Distance Mag. Time & Date
Minimum magnitude displayed is 2.5.

Coastal Water Temperatures

Place Temperature

Nearby Weather Stations